Explorer Of The Seas — C6SE4 — position and weather

sailwx.info

Track history (hours):
 
Tides and Currents Weather Stations Pressure Air Temp Water Temp Dewpoint Dewpoint Depression Visibility Wind Speed Wind Dir Waves Ship Positions

Explorer Of The Seas

Operator: Royal Caribbean Cruises Ltd

Last reported at 2020-Jul-14 13:16 UTC. Time now 2020-Jul-14 13:57 UTC.
Position N 36°21' W 004°07'.

Length 311 m; draft 9 m.

Type: Passenger vessel. MMSI: 311316000.

Date/timePositionNaut miles runAvg speedWind from/ knotsBaromVisibWave heightAir tempDewpointWater temp
2020-Jul-14 13:16N 36°21' W 004°07'8 1.2
2020-Jul-14 06:39N 36°29' W 004°05'0 0.3
2020-Jul-14 06:30N 36°29' W 004°05'61 1.3
2020-Jul-12 07:30N 36°06' W 005°15'8 3.2
2020-Jul-12 04:59N 36°07' W 005°05'63 2.4
2020-Jul-11 02:48N 36°27' W 003°51'0 0.8
2020-Jul-11 02:30N 36°28' W 003°52'0 0.7
2020-Jul-11 01:54N 36°28' W 003°52'1 0.6
2020-Jul-11 00:57N 36°28' W 003°53'2 0.8
2020-Jul-10 22:30N 36°27' W 003°55'16 0.5
2020-Jul-09 11:02N 36°34' W 004°14'17 0.8
2020-Jul-08 15:18N 36°23' W 003°57'4 2.0
2020-Jul-08 13:29N 36°23' W 004°01'1 2.0
2020-Jul-08 13:00N 36°23' W 004°03'17 2.2
2020-Jul-08 05:31N 36°22' W 004°23'1 0.4
2020-Jul-08 03:01N 36°21' W 004°23'2 0.5
2020-Jul-07 22:59N 36°19' W 004°24'1010.6
2020-Jul-07 22:00N 36°14' W 004°35'1811.8
2020-Jul-07 20:30N 36°09' W 004°56'2110.1
2020-Jul-07 18:23N 36°06' W 005°22'34 1.8
2020-Jul-06 23:46N 36°12' W 004°41'1512.0
2020-Jul-06 22:30N 36°14' W 004°23'28 8.1
2020-Jul-06 19:00N 36°20' W 003°48'1 2.4
2020-Jul-06 18:30N 36°20' W 003°50'2 2.3
2020-Jul-06 17:30N 36°21' W 003°53'1 2.2
2020-Jul-06 16:59N 36°21' W 003°54'11 2.1
2020-Jul-06 12:00N 36°20' W 004°07'3167.7
2020-Jul-06 12:00N 36°18' W 004°06'1010.5 020 / 41017.210.8 21.6
2020-Jul-06 11:00N 36°27' W 004°12'0 0.4
2020-Jul-06 10:00N 36°27' W 004°12'0 0.4
2020-Jul-06 09:30N 36°27' W 004°12'3 5.4
2020-Jul-06 09:00N 36°24' W 004°12'2 3.9 1017.0 23.0
2020-Jul-06 08:23N 36°26' W 004°12'0 0.4
2020-Jul-06 07:48N 36°26' W 004°12'1 0.3
2020-Jul-06 04:29N 36°26' W 004°13'11 0.6
2020-Jul-05 12:00N 36°24' W 004°00'8 7.7 300 / 31020.110.8 22.6
2020-Jul-05 11:00N 36°18' W 003°54'13 1.4 310 / 51020.310.8 21.8
2020-Jul-05 01:39N 36°25' W 003°41'2 0.6
2020-Jul-04 23:00N 36°24' W 003°42'   1020.0 20.0
Track history (hours):
 
Tides and Currents Weather Stations Pressure Air Temp Water Temp Dewpoint Dewpoint Depression Visibility Wind Speed Wind Dir Waves Ship Positions

Explorer Of The Seas

Operator: Royal Caribbean Cruises Ltd

Last reported at 2020-Jul-14 13:16 UTC. Time now 2020-Jul-14 13:57 UTC.
Position N 36°21' W 004°07'.

Length 311 m; draft 9 m.

Type: Passenger vessel. MMSI: 311316000.

Date/timePositionNaut miles runAvg speedWind from/ knotsBaromVisibWave heightAir tempDewpointWater temp
2020-Jul-14 13:16N 36°21' W 004°07'8 1.2
2020-Jul-14 06:39N 36°29' W 004°05'0 0.3
2020-Jul-14 06:30N 36°29' W 004°05'61 1.3
2020-Jul-12 07:30N 36°06' W 005°15'8 3.2
2020-Jul-12 04:59N 36°07' W 005°05'63 2.4
2020-Jul-11 02:48N 36°27' W 003°51'0 0.8
2020-Jul-11 02:30N 36°28' W 003°52'0 0.7
2020-Jul-11 01:54N 36°28' W 003°52'1 0.6
2020-Jul-11 00:57N 36°28' W 003°53'2 0.8
2020-Jul-10 22:30N 36°27' W 003°55'16 0.5
2020-Jul-09 11:02N 36°34' W 004°14'17 0.8
2020-Jul-08 15:18N 36°23' W 003°57'4 2.0
2020-Jul-08 13:29N 36°23' W 004°01'1 2.0
2020-Jul-08 13:00N 36°23' W 004°03'17 2.2
2020-Jul-08 05:31N 36°22' W 004°23'1 0.4
2020-Jul-08 03:01N 36°21' W 004°23'2 0.5
2020-Jul-07 22:59N 36°19' W 004°24'1010.6
2020-Jul-07 22:00N 36°14' W 004°35'1811.8
2020-Jul-07 20:30N 36°09' W 004°56'2110.1
2020-Jul-07 18:23N 36°06' W 005°22'34 1.8
2020-Jul-06 23:46N 36°12' W 004°41'1512.0
2020-Jul-06 22:30N 36°14' W 004°23'28 8.1
2020-Jul-06 19:00N 36°20' W 003°48'1 2.4
2020-Jul-06 18:30N 36°20' W 003°50'2 2.3
2020-Jul-06 17:30N 36°21' W 003°53'1 2.2
2020-Jul-06 16:59N 36°21' W 003°54'11 2.1
2020-Jul-06 12:00N 36°20' W 004°07'3167.7
2020-Jul-06 12:00N 36°18' W 004°06'1010.5 020 / 41017.210.8 21.6
2020-Jul-06 11:00N 36°27' W 004°12'0 0.4
2020-Jul-06 10:00N 36°27' W 004°12'0 0.4
2020-Jul-06 09:30N 36°27' W 004°12'3 5.4
2020-Jul-06 09:00N 36°24' W 004°12'2 3.9 1017.0 23.0
2020-Jul-06 08:23N 36°26' W 004°12'0 0.4
2020-Jul-06 07:48N 36°26' W 004°12'1 0.3
2020-Jul-06 04:29N 36°26' W 004°13'11 0.6
2020-Jul-05 12:00N 36°24' W 004°00'8 7.7 300 / 31020.110.8 22.6
2020-Jul-05 11:00N 36°18' W 003°54'13 1.4 310 / 51020.310.8 21.8
2020-Jul-05 01:39N 36°25' W 003°41'2 0.6
2020-Jul-04 23:00N 36°24' W 003°42'   1020.0 20.0

Dump ship's entire track history